Karl Stefan Memorial Airport
KOFK : now visible

Airfield :











YOU CAN JOIN US ON...

 
LOGIN :

Register | Disclaimer

   EN    FR    IT 

 









Legend :    VFR   Marginal VFR   IFR   Intensive IFR   Very Intensive IFR
Visi :
Ceiling :
>= 8 km
>= 3000ft
5 to 8 km
1000 to 3000 ft
1500m to 5 km
500 to 1000 ft
800 to 1500m
200 to 500 ft
< 800m
< 200 ft
Symbols :   Thunderstorms  Fog  Heavy snow  Heavy precipitations  Wind > 20 kt






- Airport Elevation : 1573 ft


KOFK - Karl Stefan Memorial

CURRENT METAR :
  • 100656Z AUTO 23003KT 10SM CLR M05/M09 A3021 RMK AO2 SLP244 T10501094

EXPIRED METARs :
  • 100556Z AUTO 00000KT 10SM CLR M03/M09 A3021 RMK AO2 SLP245 T10331094 10039 21044 400831044 57007
  • 100456Z AUTO 27005KT 10SM CLR M03/M09 A3021 RMK AO2 SLP246 T10331094

TAF KOFK
Valid from the 10 at 06:00 until the 11 at 06:00 UTC


100520Z 1006/1106 VRB03KT P6SM FEW250
FM101500 21011KT P6SM FEW250
FM101700 20015G23KT P6SM SCT100
FM110100 16010KT P6SM BKN200



MET'MAP, your aeronautical weather chart ! - Copyright ORBIFLY December 2007 - Disclaimer

ORBIFLY MET'MAP TEAM :

Programming & Development : Alexandra Zaïnal
Concept & original design : Baudouin d'Aumeries
Assistance for programming : Marc-Olivier Méhu
Technical & hardware support : Manuel Goepfert

Contact : metmap@orbifly.com




SOURCES & CREDITS :

   NOAA       Earth
Advisory